createdAt,value
2023-04-05T00:01:07.754Z,102451.19
2023-04-05T00:03:36.232Z,102445.28
2023-04-05T00:06:05.533Z,102447.22
2023-04-05T00:08:33.601Z,102439.00
2023-04-05T00:11:01.836Z,102440.50
2023-04-05T00:13:30.564Z,102438.34
2023-04-05T00:16:01.325Z,102439.28
2023-04-05T00:18:34.385Z,102438.56
2023-04-05T00:21:02.624Z,102434.81
2023-04-05T00:23:39.772Z,102432.91
2023-04-05T00:26:07.901Z,102427.69
2023-04-05T00:28:36.911Z,102419.72
2023-04-05T00:31:05.619Z,102418.75
2023-04-05T00:33:35.365Z,102412.50
2023-04-05T00:36:11.410Z,102399.91
2023-04-05T00:38:39.623Z,102396.16
2023-04-05T00:41:07.621Z,102396.34
2023-04-05T00:43:35.586Z,102394.25
2023-04-05T00:46:03.665Z,102390.66
2023-04-05T00:48:31.875Z,102392.63
2023-04-05T00:51:01.220Z,102390.38
2023-04-05T00:53:29.166Z,102382.03
2023-04-05T00:55:57.728Z,102390.97
2023-04-05T00:58:25.906Z,102395.25
2023-04-05T01:00:59.436Z,102388.88
2023-04-05T01:03:27.672Z,102385.22
2023-04-05T01:06:00.503Z,102381.59
2023-04-05T01:08:35.285Z,102385.84
2023-04-05T01:11:05.577Z,102382.25
2023-04-05T01:13:33.807Z,102376.81
2023-04-05T01:16:01.835Z,102384.53
2023-04-05T01:18:31.171Z,102375.09
2023-04-05T01:21:03.079Z,102374.16
2023-04-05T01:23:38.971Z,102374.25
2023-04-05T01:26:32.786Z,102371.53
2023-04-05T01:29:19.079Z,102377.28
2023-04-05T01:31:48.694Z,102367.13
2023-04-05T01:34:20.324Z,102365.00
2023-04-05T01:36:51.441Z,102367.91
2023-04-05T01:39:20.801Z,102356.59
2023-04-05T01:41:48.723Z,102351.06
2023-04-05T01:44:16.980Z,102352.75
2023-04-05T01:46:46.408Z,102353.72
2023-04-05T01:49:14.621Z,102358.69
2023-04-05T01:51:42.796Z,102354.22
2023-04-05T01:54:10.903Z,102351.91
2023-04-05T01:56:38.856Z,102345.94
2023-04-05T01:59:06.846Z,102343.28
2023-04-05T02:01:34.829Z,102332.44
2023-04-05T02:04:04.132Z,102336.56
2023-04-05T02:06:32.367Z,102329.09
2023-04-05T02:09:03.139Z,102336.81
2023-04-05T02:11:31.287Z,102326.97
2023-04-05T02:14:00.410Z,102334.69
2023-04-05T02:16:28.554Z,102326.72
2023-04-05T02:18:59.802Z,102318.63
2023-04-05T02:21:30.013Z,102322.75
2023-04-05T02:23:58.152Z,102312.97
2023-04-05T02:26:26.280Z,102317.44
2023-04-05T02:28:54.415Z,102318.28
2023-04-05T02:31:22.618Z,102306.19
2023-04-05T02:33:50.530Z,102313.69
2023-04-05T02:36:18.566Z,102302.34
2023-04-05T02:38:48.056Z,102304.75
2023-04-05T02:41:16.085Z,102301.22
2023-04-05T02:43:44.072Z,102288.91
2023-04-05T02:46:12.072Z,102298.69
2023-04-05T02:48:43.426Z,102289.84
2023-04-05T02:51:13.442Z,102290.97
2023-04-05T02:53:42.520Z,102296.38
2023-04-05T02:56:14.863Z,102291.06
2023-04-05T02:58:47.866Z,102281.16
2023-04-05T03:01:17.933Z,102288.19
2023-04-05T03:03:47.072Z,102284.53
2023-04-05T03:06:17.111Z,102281.75
2023-04-05T03:08:49.836Z,102279.22
2023-04-05T03:11:28.204Z,102281.06
2023-04-05T03:13:59.591Z,102284.44
2023-04-05T03:16:46.633Z,102278.16
2023-04-05T03:19:32.111Z,102278.25
2023-04-05T03:22:10.582Z,102275.59
2023-04-05T03:24:39.586Z,102277.41
2023-04-05T03:27:15.181Z,102270.16
2023-04-05T03:30:07.572Z,102267.75
2023-04-05T03:32:40.918Z,102266.06
2023-04-05T03:35:21.617Z,102261.44
2023-04-05T03:37:49.927Z,102265.09
2023-04-05T03:40:19.167Z,102264.09
2023-04-05T03:42:50.266Z,102255.41
2023-04-05T03:45:23.010Z,102250.09
2023-04-05T03:47:53.168Z,102246.47
2023-04-05T03:50:21.917Z,102248.41
2023-04-05T03:52:50.189Z,102242.59
2023-04-05T03:55:18.651Z,102235.69
2023-04-05T03:57:48.958Z,102233.22
2023-04-05T04:00:37.247Z,102241.47
2023-04-05T04:03:26.021Z,102233.59
2023-04-05T04:05:54.211Z,102240.84
2023-04-05T04:08:22.435Z,102237.22
2023-04-05T04:10:50.821Z,102235.41
2023-04-05T04:13:41.117Z,102242.78
2023-04-05T04:16:44.680Z,102234.06
2023-04-05T04:19:40.447Z,102226.22
2023-04-05T04:22:26.864Z,102226.44
2023-04-05T04:25:14.698Z,102237.53
2023-04-05T04:28:06.723Z,102232.81
2023-04-05T04:30:50.489Z,102230.41
2023-04-05T04:33:38.072Z,102226.63
2023-04-05T04:36:14.867Z,102225.97
2023-04-05T04:39:02.609Z,102226.97
2023-04-05T04:42:05.977Z,102224.31
2023-04-05T04:45:04.344Z,102221.19
2023-04-05T04:47:50.061Z,102223.59
2023-04-05T04:50:40.861Z,102226.78
2023-04-05T04:53:08.919Z,102220.47
2023-04-05T04:55:39.513Z,102209.84
2023-04-05T04:58:10.258Z,102205.25
2023-04-05T05:00:40.255Z,102215.69
2023-04-05T05:03:11.419Z,102206.97
2023-04-05T05:05:43.640Z,102213.13
2023-04-05T05:08:11.782Z,102203.34
2023-04-05T05:10:41.522Z,102205.25
2023-04-05T05:13:11.557Z,102210.84
2023-04-05T05:15:40.958Z,102209.03
2023-04-05T05:18:10.524Z,102193.19
2023-04-05T05:20:38.698Z,102189.78
2023-04-05T05:23:06.821Z,102188.94
2023-04-05T05:25:34.805Z,102190.75
2023-04-05T05:28:02.909Z,102184.47
2023-04-05T05:30:31.955Z,102188.09
2023-04-05T05:33:00.097Z,102190.16
2023-04-05T05:35:29.441Z,102193.66
2023-04-05T05:37:57.659Z,102193.88
2023-04-05T05:40:27.122Z,102189.88
2023-04-05T05:42:55.079Z,102193.50
2023-04-05T05:45:23.203Z,102188.06
2023-04-05T05:47:51.209Z,102195.19
2023-04-05T05:50:20.669Z,102198.44
2023-04-05T05:52:50.755Z,102187.03
2023-04-05T05:55:18.965Z,102180.72
2023-04-05T05:57:46.980Z,102187.09
2023-04-05T06:00:16.500Z,102194.72
2023-04-05T06:02:44.741Z,102197.03
2023-04-05T06:05:12.998Z,102188.09
2023-04-05T06:07:41.220Z,102185.72
2023-04-05T06:10:12.004Z,102192.38
2023-04-05T06:12:39.944Z,102176.94
2023-04-05T06:15:09.199Z,102182.03
2023-04-05T06:17:42.039Z,102178.16
2023-04-05T06:20:13.777Z,102183.25
2023-04-05T06:22:41.987Z,102186.75
2023-04-05T06:25:12.986Z,102183.47
2023-04-05T06:27:41.192Z,102181.81
2023-04-05T06:30:10.092Z,102184.69
2023-04-05T06:32:38.096Z,102173.56
2023-04-05T06:35:07.328Z,102185.88
2023-04-05T06:37:35.378Z,102175.25
2023-04-05T06:40:03.475Z,102173.31
2023-04-05T06:42:33.051Z,102170.66
2023-04-05T06:45:05.635Z,102167.88
2023-04-05T06:47:35.227Z,102167.78
2023-04-05T06:50:03.392Z,102168.53
2023-04-05T06:52:31.409Z,102164.88
2023-04-05T06:54:59.351Z,102172.97
2023-04-05T06:57:27.417Z,102172.13
2023-04-05T06:59:56.810Z,102171.03
2023-04-05T07:02:24.817Z,102164.66
2023-04-05T07:04:53.503Z,102159.22
2023-04-05T07:07:22.579Z,102162.22
2023-04-05T07:09:50.800Z,102173.19
2023-04-05T07:12:18.747Z,102167.16
2023-04-05T07:14:46.773Z,102166.09
2023-04-05T07:17:16.282Z,102168.63
2023-04-05T07:19:44.332Z,102170.94
2023-04-05T07:22:12.354Z,102171.66
2023-04-05T07:24:40.340Z,102170.59
2023-04-05T07:27:08.529Z,102167.69
2023-04-05T07:29:40.656Z,102168.53
2023-04-05T07:32:09.071Z,102168.16
2023-04-05T07:34:38.813Z,102152.59
2023-04-05T07:37:06.904Z,102159.34
2023-04-05T07:39:35.055Z,102158.63
2023-04-05T07:42:02.984Z,102164.91
2023-04-05T07:44:30.999Z,102157.06
2023-04-05T07:46:59.199Z,102154.03
2023-04-05T07:49:27.794Z,102154.66
2023-04-05T07:51:57.708Z,102160.81
2023-04-05T07:54:25.838Z,102155.13
2023-04-05T07:56:55.413Z,102155.75
2023-04-05T07:59:23.524Z,102154.53
2023-04-05T08:01:53.927Z,102156.00
2023-04-05T08:04:26.280Z,102153.84
2023-04-05T08:06:54.485Z,102150.22
2023-04-05T08:09:23.844Z,102146.34
2023-04-05T08:11:51.879Z,102146.69
2023-04-05T08:14:19.962Z,102149.47
2023-04-05T08:16:49.531Z,102149.47
2023-04-05T08:19:18.016Z,102146.69
2023-04-05T08:21:46.182Z,102141.59
2023-04-05T08:24:14.500Z,102153.81
2023-04-05T08:26:44.167Z,102156.47
2023-04-05T08:29:12.363Z,102150.88
2023-04-05T08:31:40.509Z,102141.97
2023-04-05T08:34:08.593Z,102152.22
2023-04-05T08:36:37.063Z,102148.50
2023-04-05T08:39:05.483Z,102144.38
2023-04-05T08:41:36.577Z,102131.56
2023-04-05T08:44:07.102Z,102134.38
2023-04-05T08:46:35.601Z,102132.91
2023-04-05T08:49:06.372Z,102130.19
2023-04-05T08:51:34.512Z,102135.97
2023-04-05T08:54:02.952Z,102134.03
2023-04-05T08:56:33.380Z,102134.41
2023-04-05T08:59:04.135Z,102139.13
2023-04-05T09:01:34.427Z,102141.28
2023-04-05T09:04:03.705Z,102145.63
2023-04-05T09:06:31.914Z,102145.25
2023-04-05T09:09:00.092Z,102139.59
2023-04-05T09:11:28.238Z,102149.00
2023-04-05T09:13:56.224Z,102137.75
2023-04-05T09:16:24.329Z,102138.09
2023-04-05T09:18:53.725Z,102129.25
2023-04-05T09:21:23.503Z,102127.44
2023-04-05T09:23:56.114Z,102133.38
2023-04-05T09:26:25.267Z,102131.75
2023-04-05T09:28:57.910Z,102125.94
2023-04-05T09:31:33.003Z,102126.13
2023-04-05T09:34:03.633Z,102123.97
2023-04-05T09:36:32.984Z,102128.91
2023-04-05T09:39:09.000Z,102127.53
2023-04-05T09:41:37.511Z,102119.63
2023-04-05T09:44:06.179Z,102123.59
2023-04-05T09:46:35.588Z,102111.75
2023-04-05T09:49:07.275Z,102107.84
2023-04-05T09:51:35.853Z,102112.28
2023-04-05T09:54:06.801Z,102104.13
2023-04-05T09:56:35.608Z,102099.41
2023-04-05T09:59:04.704Z,102107.00
2023-04-05T10:01:32.910Z,102104.09
2023-04-05T10:04:01.364Z,102097.50
2023-04-05T10:06:40.633Z,102100.16
2023-04-05T10:09:09.579Z,102114.47
2023-04-05T10:11:38.125Z,102109.41
2023-04-05T10:14:06.849Z,102099.00
2023-04-05T10:16:46.556Z,102102.63
2023-04-05T10:19:17.635Z,102108.25
2023-04-05T10:21:47.117Z,102101.22
2023-04-05T10:24:19.770Z,102098.69
2023-04-05T10:26:56.240Z,102093.94
2023-04-05T10:29:27.260Z,102085.78
2023-04-05T10:31:58.442Z,102101.22
2023-04-05T10:34:31.447Z,102100.06
2023-04-05T10:37:02.750Z,102091.34
2023-04-05T10:39:31.331Z,102091.63
2023-04-05T10:42:04.124Z,102095.50
2023-04-05T10:44:33.434Z,102095.13
2023-04-05T10:47:03.237Z,102090.81
2023-04-05T10:49:35.335Z,102090.63
2023-04-05T10:52:04.833Z,102090.66
2023-04-05T10:54:34.270Z,102079.94
2023-04-05T10:57:02.772Z,102078.84
2023-04-05T10:59:31.315Z,102075.94
2023-04-05T11:01:59.680Z,102078.00
2023-04-05T11:04:28.035Z,102079.41
2023-04-05T11:07:16.893Z,102072.50
2023-04-05T11:09:56.015Z,102069.97
2023-04-05T11:12:57.218Z,102067.44
2023-04-05T11:15:33.047Z,102073.16
2023-04-05T11:18:10.618Z,102078.47
2023-04-05T11:20:48.445Z,102079.13
2023-04-05T11:23:18.801Z,102072.88
2023-04-05T11:25:53.187Z,102072.44
2023-04-05T11:28:25.593Z,102072.00
2023-04-05T11:30:57.035Z,102070.88
2023-04-05T11:33:38.423Z,102061.66
2023-04-05T11:36:06.985Z,102066.13
2023-04-05T11:38:37.319Z,102067.75
2023-04-05T11:41:17.804Z,102070.53
2023-04-05T11:43:47.464Z,102062.97
2023-04-05T11:46:23.369Z,102057.75
2023-04-05T11:48:51.448Z,102052.50
2023-04-05T11:51:20.034Z,102061.84
2023-04-05T11:53:49.457Z,102048.38
2023-04-05T11:56:17.491Z,102043.91
2023-04-05T11:58:45.769Z,102045.00
2023-04-05T12:01:14.722Z,102046.13
2023-04-05T12:03:42.817Z,102038.84
2023-04-05T12:06:11.006Z,102044.88
2023-04-05T12:08:39.931Z,102035.19
2023-04-05T12:11:10.207Z,102033.25
2023-04-05T12:13:38.507Z,102032.16
2023-04-05T12:16:07.908Z,102022.91
2023-04-05T12:18:36.883Z,102018.16
2023-04-05T12:21:07.620Z,102015.41
2023-04-05T12:23:38.260Z,102016.31
2023-04-05T12:26:09.003Z,102017.72
2023-04-05T12:28:57.888Z,102019.41
2023-04-05T12:31:39.759Z,102013.22
2023-04-05T12:34:08.066Z,102013.81
2023-04-05T12:36:36.339Z,102012.69
2023-04-05T12:39:07.770Z,102009.91
2023-04-05T12:41:37.953Z,102016.19
2023-04-05T12:44:13.099Z,102006.50
2023-04-05T12:46:41.706Z,102010.75
2023-04-05T12:49:12.196Z,102015.22
2023-04-05T12:51:43.587Z,102025.75
2023-04-05T12:54:13.415Z,102013.53
2023-04-05T12:56:42.937Z,102012.00
2023-04-05T12:59:13.432Z,102011.41
2023-04-05T13:01:44.424Z,102013.34
2023-04-05T13:04:23.398Z,102005.91
2023-04-05T13:06:51.808Z,102005.84
2023-04-05T13:09:19.866Z,102001.91
2023-04-05T13:11:49.970Z,102002.19
2023-04-05T13:14:18.010Z,102003.88
2023-04-05T13:16:46.220Z,101996.00
2023-04-05T13:19:14.275Z,101980.88
2023-04-05T13:21:42.762Z,101992.13
2023-04-05T13:24:12.791Z,101981.19
2023-04-05T13:26:41.365Z,101995.53
2023-04-05T13:29:11.081Z,101983.16
2023-04-05T13:31:40.914Z,101979.53
2023-04-05T13:34:09.192Z,101985.38
2023-04-05T13:36:37.248Z,101986.81
2023-04-05T13:39:05.430Z,101981.19
2023-04-05T13:41:33.397Z,101979.53
2023-04-05T13:44:02.905Z,101976.16
2023-04-05T13:46:35.589Z,101975.88
2023-04-05T13:49:04.230Z,101974.63
2023-04-05T13:51:34.515Z,101958.63
2023-04-05T13:54:11.698Z,101964.41
2023-04-05T13:56:40.087Z,101967.50
2023-04-05T13:59:08.325Z,101959.09
2023-04-05T14:01:38.078Z,101955.06
2023-04-05T14:04:09.211Z,101952.97
2023-04-05T14:06:39.364Z,101950.13
2023-04-05T14:09:08.892Z,101942.13
2023-04-05T14:11:37.054Z,101949.59
2023-04-05T14:14:05.099Z,101935.53
2023-04-05T14:16:34.583Z,101934.97
2023-04-05T14:19:04.016Z,101932.16
2023-04-05T14:21:34.212Z,101934.69
2023-04-05T14:24:02.347Z,101919.00
2023-04-05T14:26:32.092Z,101917.31
2023-04-05T14:29:00.141Z,101904.94
2023-04-05T14:31:28.522Z,101917.56
2023-04-05T14:33:58.028Z,101909.56
2023-04-05T14:36:35.010Z,101909.97
2023-04-05T14:39:05.131Z,101904.91
2023-04-05T14:41:33.367Z,101905.19
2023-04-05T14:44:02.380Z,101895.38
2023-04-05T14:46:30.734Z,101884.56
2023-04-05T14:48:58.759Z,101885.41
2023-04-05T14:51:31.920Z,101881.75
2023-04-05T14:53:59.999Z,101870.13
2023-04-05T14:56:27.990Z,101879.53
2023-04-05T14:58:56.214Z,101875.88
2023-04-05T15:01:24.309Z,101873.22
2023-04-05T15:03:54.000Z,101856.97
2023-04-05T15:06:22.122Z,101856.97
2023-04-05T15:08:52.855Z,101852.03
2023-04-05T15:11:22.172Z,101846.44
2023-04-05T15:13:51.479Z,101856.97
2023-04-05T15:16:19.600Z,101844.47
2023-04-05T15:18:48.103Z,101847.84
2023-04-05T15:21:16.087Z,101842.38
2023-04-05T15:23:44.388Z,101839.84
2023-04-05T15:26:14.132Z,101837.59
2023-04-05T15:28:42.116Z,101843.75
2023-04-05T15:31:10.404Z,101843.47
2023-04-05T15:33:38.471Z,101833.91
2023-04-05T15:36:07.669Z,101837.28
2023-04-05T15:38:35.725Z,101836.13
2023-04-05T15:41:04.138Z,101830.97
2023-04-05T15:43:34.827Z,101834.47
2023-04-05T15:46:07.855Z,101825.06
2023-04-05T15:48:36.073Z,101829.41
2023-04-05T15:51:06.930Z,101824.09
2023-04-05T15:53:36.419Z,101833.63
2023-04-05T15:56:04.462Z,101821.72
2023-04-05T15:58:32.477Z,101816.97
2023-04-05T16:01:01.987Z,101820.72
2023-04-05T16:03:30.408Z,101811.19
2023-04-05T16:05:58.572Z,101811.19
2023-04-05T16:08:27.078Z,101819.88
2023-04-05T16:10:56.660Z,101825.47
2023-04-05T16:13:24.815Z,101810.91
2023-04-05T16:15:52.813Z,101815.94
2023-04-05T16:18:23.842Z,101817.94
2023-04-05T16:20:52.192Z,101807.28
2023-04-05T16:23:20.369Z,101813.56
2023-04-05T16:25:48.472Z,101803.91
2023-04-05T16:28:17.088Z,101799.84
2023-04-05T16:30:47.172Z,101805.28
2023-04-05T16:33:16.383Z,101802.63
2023-04-05T16:35:46.558Z,101798.81
2023-04-05T16:38:14.627Z,101795.47
2023-04-05T16:40:42.588Z,101790.53
2023-04-05T16:43:11.082Z,101799.13
2023-04-05T16:45:39.992Z,101799.13
2023-04-05T16:48:08.816Z,101795.63
2023-04-05T16:50:37.464Z,101791.84
2023-04-05T16:53:06.905Z,101797.72
2023-04-05T16:55:35.537Z,101798.31
2023-04-05T16:58:04.776Z,101785.53
2023-04-05T17:00:33.675Z,101787.09
2023-04-05T17:03:02.378Z,101788.75
2023-04-05T17:05:31.709Z,101786.09
2023-04-05T17:07:59.744Z,101787.09
2023-04-05T17:10:29.740Z,101785.38
2023-04-05T17:12:57.766Z,101780.91
2023-04-05T17:15:26.310Z,101770.25
2023-04-05T17:17:54.394Z,101783.28
2023-04-05T17:20:23.216Z,101779.75
2023-04-05T17:22:51.405Z,101774.72
2023-04-05T17:25:19.675Z,101766.72
2023-04-05T17:27:49.208Z,101767.72
2023-04-05T17:30:17.635Z,101763.50
2023-04-05T17:32:45.723Z,101769.97
2023-04-05T17:35:13.722Z,101771.06
2023-04-05T17:37:41.742Z,101768.53
2023-04-05T17:40:10.702Z,101763.22
2023-04-05T17:42:38.697Z,101760.53
2023-04-05T17:45:09.835Z,101759.28
2023-04-05T17:47:38.427Z,101767.16
2023-04-05T17:50:07.353Z,101762.09
2023-04-05T17:52:35.645Z,101751.00
2023-04-05T17:55:04.229Z,101761.25
2023-04-05T17:57:32.232Z,101751.16
2023-04-05T18:00:00.328Z,101759.50
2023-04-05T18:02:29.794Z,101752.19
2023-04-05T18:05:00.208Z,101752.75
2023-04-05T18:07:28.579Z,101751.59
2023-04-05T18:09:58.236Z,101749.38
2023-04-05T18:12:28.848Z,101758.31
2023-04-05T18:14:57.177Z,101748.78
2023-04-05T18:17:25.627Z,101746.25
2023-04-05T18:19:55.044Z,101753.53
2023-04-05T18:22:23.084Z,101742.91
2023-04-05T18:24:52.093Z,101743.75
2023-04-05T18:27:20.143Z,101745.69
2023-04-05T18:29:48.560Z,101740.06
2023-04-05T18:32:17.682Z,101737.56
2023-04-05T18:34:45.896Z,101736.56
2023-04-05T18:37:15.264Z,101740.38
2023-04-05T18:39:45.781Z,101740.38
2023-04-05T18:42:16.237Z,101737.69
2023-04-05T18:44:48.194Z,101726.09
2023-04-05T18:47:16.421Z,101727.78
2023-04-05T18:49:44.426Z,101725.09
2023-04-05T18:52:14.256Z,101722.16
2023-04-05T18:54:43.580Z,101724.09
2023-04-05T18:57:11.796Z,101732.25
2023-04-05T18:59:40.041Z,101732.25
2023-04-05T19:02:08.328Z,101725.09
2023-04-05T19:04:36.632Z,101724.09
2023-04-05T19:07:06.263Z,101729.16
2023-04-05T19:09:34.518Z,101721.91
2023-04-05T19:12:04.330Z,101723.28
2023-04-05T19:14:32.442Z,101725.81
2023-04-05T19:17:01.675Z,101723.16
2023-04-05T19:19:29.694Z,101728.34
2023-04-05T19:21:57.870Z,101726.38
2023-04-05T19:24:26.001Z,101728.06
2023-04-05T19:26:56.879Z,101723.72
2023-04-05T19:29:27.478Z,101731.44
2023-04-05T19:31:55.986Z,101728.78
2023-04-05T19:34:29.405Z,101725.13
2023-04-05T19:36:57.593Z,101726.97
2023-04-05T19:39:25.788Z,101730.47
2023-04-05T19:41:55.085Z,101723.31
2023-04-05T19:44:39.793Z,101724.72
2023-04-05T19:47:13.911Z,101721.22
2023-04-05T19:49:42.504Z,101726.53
2023-04-05T19:52:12.308Z,101725.56
2023-04-05T19:54:40.410Z,101727.25
2023-04-05T19:57:09.878Z,101718.28
2023-04-05T19:59:39.945Z,101728.94
2023-04-05T20:02:12.411Z,101720.94
2023-04-05T20:04:41.777Z,101726.28
2023-04-05T20:07:10.554Z,101728.94
2023-04-05T20:09:40.249Z,101724.31
2023-04-05T20:12:09.095Z,101721.66
2023-04-05T20:14:41.280Z,101719.25
2023-04-05T20:17:12.320Z,101722.91
2023-04-05T20:19:41.485Z,101719.69
2023-04-05T20:22:10.998Z,101718.84
2023-04-05T20:24:40.439Z,101717.69
2023-04-05T20:27:08.467Z,101718.28
2023-04-05T20:29:36.568Z,101711.97
2023-04-05T20:32:06.464Z,101703.28
2023-04-05T20:34:35.464Z,101707.63
2023-04-05T20:37:04.383Z,101706.91
2023-04-05T20:39:32.392Z,101699.22
2023-04-05T20:42:00.543Z,101699.22
2023-04-05T20:44:31.473Z,101694.88
2023-04-05T20:47:01.352Z,101692.22
2023-04-05T20:49:35.518Z,101687.84
2023-04-05T20:52:07.636Z,101690.53
2023-04-05T20:54:40.291Z,101684.91
2023-04-05T20:57:09.785Z,101688.28
2023-04-05T20:59:37.809Z,101688.28
2023-04-05T21:02:06.128Z,101693.59
2023-04-05T21:04:35.960Z,101685.47
2023-04-05T21:07:05.321Z,101688.97
2023-04-05T21:09:33.584Z,101677.34
2023-04-05T21:12:01.875Z,101680.88
2023-04-05T21:14:31.670Z,101682.38
2023-04-05T21:16:59.986Z,101668.09
2023-04-05T21:19:28.501Z,101668.94
2023-04-05T21:21:59.164Z,101667.84
2023-04-05T21:24:27.227Z,101665.06
2023-04-05T21:26:56.499Z,101662.53
2023-04-05T21:29:24.582Z,101657.31
2023-04-05T21:31:54.625Z,101666.41
2023-04-05T21:34:25.504Z,101660.22
2023-04-05T21:36:53.765Z,101658.41
2023-04-05T21:39:25.538Z,101662.91
2023-04-05T21:41:53.891Z,101657.44
2023-04-05T21:44:21.882Z,101655.50
2023-04-05T21:46:49.993Z,101649.22
2023-04-05T21:49:19.419Z,101650.19
2023-04-05T21:51:47.442Z,101653.69
2023-04-05T21:54:16.337Z,101653.56
2023-04-05T21:56:46.188Z,101645.41
2023-04-05T21:59:15.500Z,101654.09
2023-04-05T22:01:44.461Z,101653.84
2023-04-05T22:04:13.219Z,101638.00
2023-04-05T22:06:42.870Z,101635.31
2023-04-05T22:09:11.171Z,101632.66
2023-04-05T22:11:39.186Z,101631.69
2023-04-05T22:14:09.799Z,101627.19
2023-04-05T22:16:38.584Z,101623.38
2023-04-05T22:19:07.925Z,101624.41
2023-04-05T22:21:36.149Z,101623.38
2023-04-05T22:24:05.475Z,101614.56
2023-04-05T22:26:34.144Z,101617.22
2023-04-05T22:29:02.337Z,101621.88
2023-04-05T22:31:31.770Z,101619.34
2023-04-05T22:34:01.089Z,101622.00
2023-04-05T22:36:32.121Z,101620.06
2023-04-05T22:39:00.153Z,101616.25
2023-04-05T22:41:28.136Z,101611.75
2023-04-05T22:43:56.085Z,101603.09
2023-04-05T22:46:24.248Z,101610.38
2023-04-05T22:48:53.723Z,101605.03
2023-04-05T22:51:23.101Z,101614.00
2023-04-05T22:53:53.694Z,101608.94
2023-04-05T22:56:24.153Z,101602.78
2023-04-05T22:58:52.237Z,101601.81
2023-04-05T23:01:20.263Z,101599.00
2023-04-05T23:03:48.527Z,101598.88
2023-04-05T23:06:18.160Z,101601.09
2023-04-05T23:08:46.277Z,101595.78
2023-04-05T23:11:14.270Z,101597.75
2023-04-05T23:13:42.403Z,101597.19
2023-04-05T23:16:10.493Z,101604.63
2023-04-05T23:18:38.483Z,101602.34
2023-04-05T23:21:06.745Z,101610.06
2023-04-05T23:23:36.368Z,101599.97
2023-04-05T23:26:04.511Z,101609.22
2023-04-05T23:28:32.538Z,101605.00
2023-04-05T23:31:01.957Z,101612.59
2023-04-05T23:33:30.516Z,101612.28
2023-04-05T23:35:58.589Z,101601.75
2023-04-05T23:38:26.923Z,101610.00
2023-04-05T23:40:58.033Z,101613.66
2023-04-05T23:43:26.410Z,101612.66
2023-04-05T23:45:54.332Z,101619.25
2023-04-05T23:48:22.570Z,101615.59
2023-04-05T23:50:50.745Z,101626.22
2023-04-05T23:53:18.713Z,101635.59
2023-04-05T23:55:47.280Z,101630.66
2023-04-05T23:58:16.944Z,101635.69
